Time;durP1;ratioP1;P1;durP2;ratioP2;P2;SDS_P1;SDS_P2;PMS_P1;PMS_P2;Temp;Humidity;BMP_temperature;BMP_pressure;BME280_temperature;BME280_humidity;BME280_pressure;Samples;Min_cycle;Max_cycle;Signal;HPM_P1;HPM_P2
2023/07/21 00:02:23;;;;;;;1.48;1.38;;;23.40;60.90;;;;;;4983211;28;20188;-72
2023/07/21 00:04:49;;;;;;;1.58;1.48;;;23.40;60.80;;;;;;4990516;28;20243;-72
2023/07/21 00:07:14;;;;;;;1.30;1.20;;;23.40;60.90;;;;;;4976385;28;20193;-72
2023/07/21 00:09:40;;;;;;;1.40;1.30;;;23.40;60.90;;;;;;4992974;28;20189;-72
2023/07/21 00:12:07;;;;;;;1.60;1.50;;;23.40;60.90;;;;;;4986830;28;20222;-72
2023/07/21 00:14:32;;;;;;;1.52;1.42;;;23.40;60.90;;;;;;4982717;28;20200;-72
2023/07/21 00:16:58;;;;;;;1.65;1.50;;;23.40;61.00;;;;;;4986322;28;20185;-72
2023/07/21 00:19:24;;;;;;;1.40;1.30;;;23.40;60.90;;;;;;4974201;28;20223;-72
2023/07/21 00:21:50;;;;;;;2.58;1.52;;;23.40;61.00;;;;;;4974571;28;20209;-72
2023/07/21 00:24:18;;;;;;;1.40;1.30;;;23.40;61.00;;;;;;4974231;28;20209;-72
2023/07/21 00:26:46;;;;;;;1.38;1.27;;;23.40;61.00;;;;;;4997963;28;20189;-72
2023/07/21 00:29:12;;;;;;;1.38;1.27;;;23.40;60.90;;;;;;4987908;28;20189;-72
2023/07/21 00:31:39;;;;;;;1.70;1.60;;;23.40;61.00;;;;;;4973858;28;20192;-72
2023/07/21 00:34:05;;;;;;;1.35;1.30;;;23.30;60.80;;;;;;4987635;28;20209;-72
2023/07/21 00:36:31;;;;;;;1.30;1.20;;;23.40;61.10;;;;;;4990427;28;20229;-72
2023/07/21 00:39:00;;;;;;;1.30;1.20;;;23.40;61.10;;;;;;4981929;28;20184;-72
2023/07/21 00:41:26;;;;;;;1.42;1.33;;;23.40;61.10;;;;;;4981990;28;20185;-72
2023/07/21 00:43:52;;;;;;;1.50;1.40;;;23.40;61.10;;;;;;4973824;28;20209;-72
2023/07/21 00:46:18;;;;;;;1.40;1.30;;;23.40;61.10;;;;;;4973182;28;20188;-73
2023/07/21 00:48:44;;;;;;;1.27;1.17;;;23.40;61.10;;;;;;4973078;28;20203;-73
2023/07/21 00:51:10;;;;;;;1.30;1.20;;;23.40;61.20;;;;;;4982099;28;20190;-73
2023/07/21 00:53:36;;;;;;;1.60;1.40;;;23.40;61.10;;;;;;4986867;28;20213;-73
2023/07/21 00:56:04;;;;;;;1.45;1.35;;;23.40;61.10;;;;;;4967794;28;20193;-73
2023/07/21 00:58:31;;;;;;;1.70;1.30;;;23.40;61.10;;;;;;4973221;28;20275;-73
2023/07/21 01:00:57;;;;;;;1.67;1.58;;;23.30;61.00;;;;;;4991313;28;20273;-72
2023/07/21 01:03:24;;;;;;;1.33;1.20;;;23.40;61.10;;;;;;4973280;28;20276;-72
2023/07/21 01:05:54;;;;;;;1.40;1.30;;;23.40;61.90;;;;;;4987311;28;20193;-73
2023/07/21 01:08:21;;;;;;;1.42;1.33;;;23.40;61.10;;;;;;4994430;28;20275;-73
2023/07/21 01:10:48;;;;;;;1.50;1.40;;;23.30;61.00;;;;;;4973753;28;20655;-73
2023/07/21 01:13:16;;;;;;;1.30;1.20;;;23.30;61.00;;;;;;4971502;28;20316;-73
2023/07/21 01:15:49;;;;;;;1.40;1.30;;;23.30;61.00;;;;;;4994852;28;20256;-73
2023/07/21 01:18:18;;;;;;;1.30;1.20;;;23.30;61.00;;;;;;4972777;28;20277;-72
2023/07/21 01:20:45;;;;;;;1.60;1.50;;;23.40;61.10;;;;;;4968845;28;20208;-72
2023/07/21 01:23:26;;;;;;;1.20;1.10;;;23.40;61.20;;;;;;4977873;28;20216;-72
2023/07/21 01:25:55;;;;;;;1.33;1.23;;;23.40;61.20;;;;;;4985126;28;20760;-72
2023/07/21 01:28:23;;;;;;;1.25;1.15;;;23.30;61.10;;;;;;4983830;28;20675;-72
2023/07/21 01:30:53;;;;;;;1.30;1.20;;;23.40;61.30;;;;;;4976851;28;20221;-72
2023/07/21 01:33:20;;;;;;;1.30;1.20;;;23.30;61.10;;;;;;4993364;28;20248;-72
2023/07/21 01:35:48;;;;;;;1.27;1.17;;;23.40;61.30;;;;;;4961049;28;20185;-72
2023/07/21 01:38:17;;;;;;;1.45;1.35;;;23.30;61.10;;;;;;4977814;28;20184;-72
2023/07/21 01:40:44;;;;;;;1.45;1.33;;;23.40;61.30;;;;;;4994898;28;20268;-72
2023/07/21 01:43:14;;;;;;;1.50;1.40;;;23.30;61.20;;;;;;4973740;28;20213;-72
2023/07/21 01:45:41;;;;;;;1.50;1.40;;;23.30;61.10;;;;;;4961144;28;20185;-72
2023/07/21 01:48:07;;;;;;;1.27;1.08;;;23.40;61.30;;;;;;4959743;28;20248;-71
2023/07/21 01:50:35;;;;;;;1.35;1.25;;;23.40;61.30;;;;;;4988403;28;20184;-72
2023/07/21 01:53:08;;;;;;;2.08;1.40;;;23.30;61.20;;;;;;4976792;28;20210;-72
2023/07/21 01:55:45;;;;;;;1.45;1.35;;;23.40;61.30;;;;;;4983660;28;20215;-72
2023/07/21 01:58:14;;;;;;;1.45;1.35;;;23.40;61.40;;;;;;4959561;28;20185;-72
2023/07/21 02:00:43;;;;;;;1.73;1.45;;;23.40;61.40;;;;;;4992413;28;20188;-72
2023/07/21 02:03:11;;;;;;;1.67;1.27;;;23.30;61.30;;;;;;5003314;28;20740;-72
2023/07/21 02:05:36;;;;;;;1.30;1.20;;;23.30;61.30;;;;;;4998384;28;20184;-72
2023/07/21 02:08:05;;;;;;;1.23;1.17;;;23.40;61.50;;;;;;5004204;28;20196;-72
2023/07/21 02:10:31;;;;;;;1.40;1.30;;;23.30;61.30;;;;;;4980044;28;20185;-72
2023/07/21 02:13:10;;;;;;;1.45;1.35;;;23.30;61.30;;;;;;4979978;28;20234;-72
2023/07/21 02:15:36;;;;;;;2.50;1.50;;;23.40;61.50;;;;;;4969025;28;20186;-72
2023/07/21 02:18:02;;;;;;;1.35;1.25;;;23.30;62.10;;;;;;4975302;28;20188;-71
2023/07/21 02:20:28;;;;;;;1.30;1.20;;;23.30;61.30;;;;;;4995004;28;20718;-72
2023/07/21 02:22:55;;;;;;;1.60;1.13;;;23.30;61.30;;;;;;4980145;28;20201;-72
2023/07/21 02:25:22;;;;;;;1.35;1.20;;;23.40;61.50;;;;;;4963666;28;20238;-72
2023/07/21 02:27:48;;;;;;;1.02;1.02;;;23.30;61.30;;;;;;4992026;28;20193;-72
2023/07/21 02:30:14;;;;;;;1.33;1.23;;;23.30;61.30;;;;;;4978141;28;20188;-72
2023/07/21 02:32:40;;;;;;;1.50;1.40;;;23.30;61.30;;;;;;4976338;28;20212;-72
2023/07/21 02:35:08;;;;;;;1.42;1.33;;;23.30;61.30;;;;;;4981043;28;20277;-73
2023/07/21 02:37:35;;;;;;;1.17;1.13;;;23.30;61.30;;;;;;4967575;28;20185;-73
2023/07/21 02:40:04;;;;;;;1.50;1.40;;;23.30;61.40;;;;;;4976508;28;20189;-72
2023/07/21 02:42:30;;;;;;;1.58;1.42;;;23.30;61.30;;;;;;4992684;28;20204;-75
2023/07/21 02:44:58;;;;;;;1.30;1.20;;;23.30;61.30;;;;;;4975951;28;20686;-74
2023/07/21 02:47:24;;;;;;;1.38;1.23;;;23.30;61.30;;;;;;4964322;28;20192;-74
2023/07/21 02:49:49;;;;;;;1.50;1.40;;;23.30;61.40;;;;;;4981689;28;20581;-74
2023/07/21 02:52:15;;;;;;;1.42;1.17;;;23.30;61.40;;;;;;4956829;28;20221;-74
2023/07/21 02:54:47;;;;;;;0.98;0.98;;;23.30;61.40;;;;;;4970116;28;20208;-74
2023/07/21 02:57:13;;;;;;;1.30;1.20;;;23.30;61.40;;;;;;4988635;28;20189;-74
2023/07/21 02:59:41;;;;;;;1.38;1.27;;;23.30;61.50;;;;;;4984185;28;20234;-74
2023/07/21 03:02:08;;;;;;;1.23;1.17;;;23.30;61.40;;;;;;4992400;28;20275;-73
2023/07/21 03:04:42;;;;;;;1.27;1.27;;;23.30;61.40;;;;;;4984607;28;20200;-74
2023/07/21 03:07:11;;;;;;;2.15;1.30;;;23.30;61.50;;;;;;4967173;28;20201;-72
2023/07/21 03:09:37;;;;;;;1.20;1.20;;;23.30;61.30;;;;;;4972628;28;20190;-72
2023/07/21 03:12:07;;;;;;;1.40;1.30;;;23.30;61.40;;;;;;4983813;28;20218;-73
2023/07/21 03:14:52;;;;;;;1.30;1.20;;;23.30;61.40;;;;;;4971369;28;20309;-72
2023/07/21 03:17:20;;;;;;;1.65;1.55;;;23.30;61.50;;;;;;4988479;28;20195;-72
2023/07/21 03:19:48;;;;;;;1.40;1.30;;;23.20;61.30;;;;;;4972006;28;20190;-72
2023/07/21 03:22:16;;;;;;;1.30;1.20;;;23.20;61.20;;;;;;4972309;28;20212;-72
2023/07/21 03:24:44;;;;;;;1.33;1.23;;;23.20;61.30;;;;;;4979500;28;20201;-72
2023/07/21 03:27:12;;;;;;;1.00;1.00;;;23.30;61.40;;;;;;4987911;28;20225;-72
2023/07/21 03:29:42;;;;;;;1.50;1.38;;;23.30;61.40;;;;;;4971931;28;20284;-72
2023/07/21 03:32:10;;;;;;;1.20;1.10;;;23.30;61.50;;;;;;4972429;28;20217;-72
2023/07/21 03:34:36;;;;;;;1.50;1.40;;;23.20;61.40;;;;;;4979242;28;20715;-72
2023/07/21 03:37:08;;;;;;;1.85;1.35;;;23.30;61.50;;;;;;4966661;28;20189;-72
2023/07/21 03:39:33;;;;;;;1.50;1.40;;;23.30;61.40;;;;;;4989036;28;20182;-72
2023/07/21 03:42:00;;;;;;;1.33;1.23;;;23.20;61.30;;;;;;4974989;28;20193;-72
2023/07/21 03:44:25;;;;;;;1.23;1.20;;;23.30;61.40;;;;;;4973546;28;20211;-72
2023/07/21 03:46:51;;;;;;;1.40;1.30;;;23.20;61.40;;;;;;4955052;28;20224;-73
2023/07/21 03:49:32;;;;;;;1.35;1.25;;;23.20;61.30;;;;;;4973648;28;20674;-73
2023/07/21 03:52:04;;;;;;;1.27;1.17;;;23.30;61.40;;;;;;4988186;28;20213;-74
2023/07/21 03:54:30;;;;;;;1.33;1.23;;;23.20;61.40;;;;;;4971630;28;20208;-73
2023/07/21 03:56:57;;;;;;;1.25;1.10;;;23.20;61.40;;;;;;4974560;28;20267;-73
2023/07/21 03:59:23;;;;;;;1.20;1.20;;;23.20;61.30;;;;;;4966725;28;20272;-73
2023/07/21 04:01:49;;;;;;;1.50;1.40;;;23.20;61.30;;;;;;4987631;28;20209;-72
2023/07/21 04:04:15;;;;;;;1.50;1.40;;;23.20;61.40;;;;;;4970643;28;20717;-73
2023/07/21 04:06:42;;;;;;;1.23;1.20;;;23.20;61.30;;;;;;4970026;28;20264;-73
2023/07/21 04:09:13;;;;;;;1.38;1.27;;;23.20;61.40;;;;;;4968835;28;20268;-73
2023/07/21 04:11:39;;;;;;;1.85;1.30;;;23.20;61.40;;;;;;4955135;28;20196;-73
2023/07/21 04:14:05;;;;;;;1.00;1.00;;;23.20;61.50;;;;;;4983826;28;20213;-73
2023/07/21 04:16:32;;;;;;;1.33;1.23;;;23.20;61.60;;;;;;4972721;28;20515;-73
2023/07/21 04:18:58;;;;;;;1.40;1.30;;;23.20;61.40;;;;;;4983860;28;20203;-73
2023/07/21 04:21:25;;;;;;;1.30;1.20;;;23.20;61.50;;;;;;4957565;28;20198;-72
2023/07/21 04:23:52;;;;;;;1.30;1.20;;;23.20;61.50;;;;;;4971125;28;20205;-72
2023/07/21 04:26:18;;;;;;;1.70;1.60;;;23.20;61.50;;;;;;4986641;28;20185;-72
2023/07/21 04:28:45;;;;;;;0.95;0.95;;;23.20;61.50;;;;;;4970083;28;20237;-72
2023/07/21 04:31:11;;;;;;;1.42;1.33;;;23.20;61.50;;;;;;4970457;28;20193;-73
2023/07/21 04:33:56;;;;;;;1.30;1.20;;;23.20;61.50;;;;;;4971170;28;20264;-72
2023/07/21 04:36:22;;;;;;;1.50;1.40;;;23.20;61.40;;;;;;4988146;28;20192;-73
2023/07/21 04:38:48;;;;;;;1.23;1.13;;;23.20;61.50;;;;;;4978543;28;20193;-73
2023/07/21 04:41:16;;;;;;;1.52;1.42;;;23.20;61.40;;;;;;4978460;28;20217;-73
2023/07/21 04:43:45;;;;;;;1.20;1.10;;;23.20;61.50;;;;;;4978451;28;20213;-72
2023/07/21 04:46:12;;;;;;;1.17;1.08;;;23.20;61.50;;;;;;4977955;28;20223;-74
2023/07/21 04:48:39;;;;;;;1.27;1.17;;;23.20;61.50;;;;;;4958217;28;20197;-74
2023/07/21 04:51:07;;;;;;;0.88;0.82;;;23.20;61.40;;;;;;4992570;28;20200;-74
2023/07/21 04:53:33;;;;;;;2.13;1.45;;;23.20;61.50;;;;;;4995401;28;20237;-73
2023/07/21 04:55:59;;;;;;;1.38;1.20;;;23.20;61.40;;;;;;4977005;28;20223;-72
2023/07/21 04:58:29;;;;;;;2.03;1.55;;;23.20;61.50;;;;;;4985644;28;20184;-73
2023/07/21 05:00:55;;;;;;;1.40;1.30;;;23.20;61.30;;;;;;4973945;28;20219;-73
2023/07/21 05:03:21;;;;;;;1.40;1.20;;;23.20;61.30;;;;;;4974130;28;20215;-73
2023/07/21 05:05:48;;;;;;;1.27;1.23;;;23.20;61.30;;;;;;4974006;28;20192;-73
2023/07/21 05:08:14;;;;;;;2.45;1.40;;;23.20;61.30;;;;;;4981256;28;20188;-73
2023/07/21 05:10:43;;;;;;;1.10;1.10;;;23.20;61.20;;;;;;4970124;28;20248;-73
2023/07/21 05:13:14;;;;;;;1.30;1.10;;;23.20;61.20;;;;;;4972629;28;20229;-72
2023/07/21 05:15:49;;;;;;;1.23;1.20;;;23.20;61.20;;;;;;4989510;28;20197;-72
2023/07/21 05:18:26;;;;;;;1.05;1.05;;;23.20;61.20;;;;;;4998764;28;20185;-72
2023/07/21 05:21:10;;;;;;;1.50;1.40;;;23.10;61.10;;;;;;4984184;28;20686;-72
2023/07/21 05:23:43;;;;;;;1.40;1.30;;;23.10;61.10;;;;;;4972612;28;20215;-72
2023/07/21 05:26:16;;;;;;;1.33;1.23;;;23.10;61.10;;;;;;4984959;28;20193;-72
2023/07/21 05:28:42;;;;;;;1.25;1.15;;;23.20;61.20;;;;;;4968304;28;20224;-74
2023/07/21 05:31:13;;;;;;;1.30;1.30;;;23.20;61.20;;;;;;4973280;28;20208;-74
2023/07/21 05:33:52;;;;;;;1.45;1.35;;;23.20;61.20;;;;;;4972029;28;20217;-72
2023/07/21 05:36:18;;;;;;;1.45;1.30;;;23.10;61.10;;;;;;4971342;28;20212;-72
2023/07/21 05:38:44;;;;;;;2.10;1.42;;;23.20;61.20;;;;;;4972332;28;20188;-72
2023/07/21 05:41:10;;;;;;;1.42;1.33;;;23.20;61.20;;;;;;4988670;28;20240;-72
2023/07/21 05:43:36;;;;;;;1.60;1.17;;;23.20;61.20;;;;;;4967689;28;20213;-72
2023/07/21 05:46:05;;;;;;;1.27;1.17;;;23.10;61.10;;;;;;4973145;28;20208;-72
2023/07/21 05:48:32;;;;;;;1.40;1.30;;;23.10;61.10;;;;;;4972594;28;20189;-72
2023/07/21 05:51:02;;;;;;;1.50;1.40;;;23.10;61.10;;;;;;4976305;28;20197;-72
2023/07/21 05:53:28;;;;;;;1.50;1.30;;;23.20;61.20;;;;;;4970260;28;20221;-72
2023/07/21 05:55:58;;;;;;;1.48;1.38;;;23.20;61.20;;;;;;4970716;28;20192;-72
2023/07/21 05:58:53;;;;;;;1.35;1.20;;;23.10;61.10;;;;;;4980150;28;20190;-72
2023/07/21 06:01:19;;;;;;;1.40;1.30;;;23.10;61.20;;;;;;4983630;28;20189;-72
2023/07/21 06:03:46;;;;;;;1.40;1.30;;;23.10;61.10;;;;;;4970514;28;20206;-72
2023/07/21 06:06:12;;;;;;;1.40;1.30;;;23.20;61.30;;;;;;4989458;28;20193;-72
2023/07/21 06:09:13;;;;;;;1.40;1.30;;;23.20;61.20;;;;;;4984993;28;20188;-72
2023/07/21 06:11:45;;;;;;;1.75;1.60;;;23.20;61.20;;;;;;4983051;28;20192;-72
2023/07/21 06:14:37;;;;;;;1.05;1.05;;;23.10;61.10;;;;;;4988466;28;20280;-72
2023/07/21 06:17:13;;;;;;;1.10;1.10;;;23.20;61.30;;;;;;4986616;28;20584;-72
2023/07/21 06:19:39;;;;;;;1.20;1.10;;;23.20;61.30;;;;;;4977428;28;20184;-72
2023/07/21 06:22:06;;;;;;;1.50;1.40;;;23.20;61.30;;;;;;4975938;28;20197;-72
2023/07/21 06:24:33;;;;;;;1.35;1.25;;;23.20;61.40;;;;;;4974136;28;20208;-72
2023/07/21 06:26:59;;;;;;;1.30;1.30;;;23.10;61.20;;;;;;4976045;28;20192;-72
2023/07/21 06:29:26;;;;;;;1.30;1.20;;;23.10;61.20;;;;;;4976758;28;20239;-72
2023/07/21 06:31:53;;;;;;;1.40;1.30;;;23.20;61.30;;;;;;4997244;28;20189;-72
2023/07/21 06:34:47;;;;;;;1.33;1.27;;;23.20;61.30;;;;;;4990462;28;20216;-72
2023/07/21 06:37:38;;;;;;;1.45;1.30;;;23.20;62.10;;;;;;4985378;28;20189;-72
2023/07/21 06:40:19;;;;;;;1.30;1.20;;;23.20;61.20;;;;;;4986377;28;20181;-72
2023/07/21 06:43:08;;;;;;;2.17;1.48;;;23.20;61.20;;;;;;4991714;28;20212;-72
2023/07/21 06:45:45;;;;;;;1.30;1.20;;;23.20;62.00;;;;;;4977289;28;20203;-72
2023/07/21 06:48:37;;;;;;;1.42;1.33;;;23.20;61.20;;;;;;4990715;28;20276;-72
2023/07/21 06:51:10;;;;;;;1.20;1.10;;;23.20;61.00;;;;;;4973187;28;20185;-72
2023/07/21 06:53:36;;;;;;;1.60;1.50;;;23.20;61.00;;;;;;4980617;28;20233;-73
2023/07/21 06:56:04;;;;;;;1.23;1.13;;;23.20;61.00;;;;;;4993245;28;20181;-72
2023/07/21 06:58:30;;;;;;;1.95;1.40;;;23.20;61.00;;;;;;4991709;28;20188;-72
2023/07/21 07:00:57;;;;;;;1.33;1.23;;;23.20;61.00;;;;;;4998763;28;20193;-72
2023/07/21 07:03:23;;;;;;;1.33;1.25;;;23.20;61.00;;;;;;4976464;28;20223;-72
2023/07/21 07:05:49;;;;;;;1.70;1.60;;;23.20;60.90;;;;;;4974312;28;20188;-72
2023/07/21 07:08:15;;;;;;;1.20;1.10;;;23.20;60.90;;;;;;4961351;28;20362;-73
2023/07/21 07:10:47;;;;;;;1.75;1.48;;;23.20;60.90;;;;;;4960277;28;20190;-72
2023/07/21 07:13:13;;;;;;;1.35;1.25;;;23.20;60.90;;;;;;4991215;28;20229;-72
2023/07/21 07:15:39;;;;;;;1.38;1.27;;;23.20;60.90;;;;;;4987643;28;20276;-72
2023/07/21 07:18:05;;;;;;;1.15;1.13;;;23.20;60.90;;;;;;4987901;28;20321;-72
2023/07/21 07:20:31;;;;;;;1.83;1.35;;;23.20;60.90;;;;;;4987854;28;20227;-72
2023/07/21 07:22:57;;;;;;;1.48;1.38;;;23.20;60.80;;;;;;4974078;28;20193;-72
2023/07/21 07:25:25;;;;;;;1.30;1.20;;;23.20;60.70;;;;;;4961197;28;20197;-72
2023/07/21 07:27:52;;;;;;;1.40;1.30;;;23.20;60.60;;;;;;4987494;28;20281;-72
2023/07/21 07:30:20;;;;;;;1.40;1.30;;;23.30;60.80;;;;;;4969259;28;20196;-72
2023/07/21 07:32:46;;;;;;;1.50;1.40;;;23.20;60.60;;;;;;4984831;28;20638;-72
2023/07/21 07:35:12;;;;;;;1.60;1.50;;;23.20;60.70;;;;;;4981458;28;20209;-72
2023/07/21 07:37:38;;;;;;;1.60;1.50;;;23.20;60.60;;;;;;4977746;28;20188;-72
2023/07/21 07:40:05;;;;;;;1.63;1.50;;;23.20;60.60;;;;;;4979724;28;20186;-72
2023/07/21 07:42:32;;;;;;;1.50;1.40;;;23.30;60.50;;;;;;5003745;28;20228;-72
2023/07/21 07:45:00;;;;;;;1.52;1.40;;;23.30;60.50;;;;;;4973920;28;20219;-72
2023/07/21 07:47:27;;;;;;;1.30;1.20;;;23.30;60.60;;;;;;4998515;28;20290;-72
2023/07/21 07:49:53;;;;;;;1.55;1.40;;;23.30;60.50;;;;;;4971490;28;20201;-73
2023/07/21 07:52:19;;;;;;;1.50;1.40;;;23.30;60.50;;;;;;4976817;28;20223;-72
2023/07/21 07:54:45;;;;;;;1.70;1.60;;;23.30;60.40;;;;;;4974016;28;20220;-72
2023/07/21 07:57:11;;;;;;;1.50;1.40;;;23.30;60.30;;;;;;4966921;28;20185;-73
2023/07/21 07:59:37;;;;;;;1.85;1.50;;;23.30;60.30;;;;;;4966356;28;20192;-72
2023/07/21 08:02:03;;;;;;;1.30;1.20;;;23.30;60.30;;;;;;4989877;28;20725;-73
2023/07/21 08:04:29;;;;;;;1.33;1.23;;;23.30;60.30;;;;;;4974423;28;20236;-72
2023/07/21 08:06:55;;;;;;;1.60;1.50;;;23.40;60.40;;;;;;4979623;28;20251;-72
2023/07/21 08:09:22;;;;;;;1.40;1.30;;;23.40;60.30;;;;;;4975205;28;20287;-73
2023/07/21 08:11:48;;;;;;;1.30;1.20;;;23.40;60.40;;;;;;4985253;28;20590;-72
2023/07/21 08:14:13;;;;;;;1.25;1.15;;;23.30;60.00;;;;;;4981953;28;20208;-72
2023/07/21 08:16:39;;;;;;;1.27;1.13;;;23.30;60.20;;;;;;4984199;28;20528;-72
2023/07/21 08:19:05;;;;;;;1.30;1.20;;;23.40;60.20;;;;;;4961888;28;20197;-73
2023/07/21 08:21:31;;;;;;;1.52;1.42;;;23.30;60.00;;;;;;4985737;28;20629;-72
2023/07/21 08:23:57;;;;;;;1.95;1.23;;;23.30;60.10;;;;;;4972395;28;20315;-72
2023/07/21 08:26:23;;;;;;;1.35;1.25;;;23.40;60.40;;;;;;4978751;28;20185;-72
2023/07/21 08:28:52;;;;;;;1.02;0.98;;;23.40;60.40;;;;;;4977742;28;20252;-72
2023/07/21 08:31:19;;;;;;;1.40;1.30;;;23.40;60.30;;;;;;4970967;28;20269;-72
2023/07/21 08:33:45;;;;;;;1.55;1.45;;;23.40;60.10;;;;;;4973370;28;20225;-72
2023/07/21 08:36:11;;;;;;;1.45;1.30;;;23.30;60.30;;;;;;4974913;28;20192;-72
2023/07/21 08:38:36;;;;;;;1.10;1.10;;;23.40;60.50;;;;;;4985900;28;20185;-72
2023/07/21 08:41:09;;;;;;;1.63;1.10;;;23.40;60.50;;;;;;4983184;28;20196;-72
2023/07/21 08:43:35;;;;;;;1.30;1.20;;;23.40;60.60;;;;;;4983793;28;20262;-72
2023/07/21 08:46:06;;;;;;;1.27;1.17;;;23.40;60.40;;;;;;4993467;28;20189;-72
2023/07/21 08:48:34;;;;;;;1.50;1.30;;;23.40;60.50;;;;;;4984826;28;20193;-72
2023/07/21 08:51:00;;;;;;;1.45;1.35;;;23.40;60.40;;;;;;4973966;28;20251;-74
2023/07/21 08:53:27;;;;;;;1.88;1.30;;;23.50;60.70;;;;;;4973988;28;20215;-74
2023/07/21 08:55:58;;;;;;;1.50;1.40;;;23.50;60.70;;;;;;4971614;28;20225;-74
2023/07/21 08:58:25;;;;;;;1.65;1.55;;;23.40;60.40;;;;;;4989466;28;20199;-74
2023/07/21 09:00:52;;;;;;;1.50;1.40;;;23.50;60.50;;;;;;4972434;28;20193;-74
2023/07/21 09:03:24;;;;;;;1.85;1.50;;;23.50;60.50;;;;;;4970763;28;20201;-74
2023/07/21 09:05:51;;;;;;;1.45;1.35;;;23.40;60.40;;;;;;4986818;28;20221;-74
2023/07/21 09:08:29;;;;;;;1.35;1.27;;;23.50;60.50;;;;;;4978446;28;20193;-74
2023/07/21 09:11:00;;;;;;;1.50;1.40;;;23.50;60.50;;;;;;4986550;28;20204;-74
2023/07/21 09:13:26;;;;;;;1.90;1.45;;;23.40;60.20;;;;;;4981137;28;20232;-74
2023/07/21 09:16:07;;;;;;;1.70;1.60;;;23.50;60.50;;;;;;4970322;28;20181;-75
2023/07/21 09:18:52;;;;;;;1.35;1.25;;;23.50;60.60;;;;;;4986330;28;20181;-74
2023/07/21 09:21:22;;;;;;;1.30;1.20;;;23.50;60.50;;;;;;4963308;28;20193;-74
2023/07/21 09:23:50;;;;;;;1.30;1.20;;;23.50;60.60;;;;;;4967664;28;20217;-74
2023/07/21 09:26:22;;;;;;;1.20;1.10;;;23.50;60.60;;;;;;4986314;28;20205;-74
2023/07/21 09:28:48;;;;;;;1.45;1.30;;;23.50;60.50;;;;;;4954283;28;20181;-75
2023/07/21 09:31:14;;;;;;;1.35;1.25;;;23.50;60.50;;;;;;4978342;28;20204;-74
2023/07/21 09:33:45;;;;;;;1.30;1.20;;;23.50;60.50;;;;;;4978665;28;20261;-74
2023/07/21 09:36:16;;;;;;;1.27;1.15;;;23.50;60.40;;;;;;4970525;28;20213;-74
2023/07/21 09:38:44;;;;;;;1.63;1.23;;;23.50;60.50;;;;;;4965836;28;20190;-75
2023/07/21 09:41:17;;;;;;;1.10;1.10;;;23.50;60.50;;;;;;4966296;28;20272;-74
2023/07/21 09:43:43;;;;;;;1.15;1.15;;;23.50;60.50;;;;;;4986468;28;20205;-74
2023/07/21 09:46:10;;;;;;;1.42;1.33;;;23.50;60.50;;;;;;4960514;28;20239;-72
2023/07/21 09:48:40;;;;;;;1.50;1.38;;;23.60;60.60;;;;;;4992791;28;20255;-75
2023/07/21 09:51:10;;;;;;;1.40;1.25;;;23.50;60.50;;;;;;4975415;28;20199;-73
2023/07/21 09:53:42;;;;;;;1.45;1.25;;;23.50;60.90;;;;;;4989089;28;20235;-75
2023/07/21 09:56:11;;;;;;;1.30;1.20;;;23.40;60.70;;;;;;4984708;28;20231;-73
2023/07/21 09:58:53;;;;;;;1.50;1.40;;;23.50;61.30;;;;;;4969117;28;20280;-73
2023/07/21 10:01:19;;;;;;;1.33;1.23;;;23.50;61.40;;;;;;4969268;28;20214;-74
2023/07/21 10:03:45;;;;;;;2.53;1.40;;;23.40;60.90;;;;;;4972345;28;20667;-73
2023/07/21 10:06:14;;;;;;;1.40;1.30;;;23.40;61.00;;;;;;4961639;28;20209;-73
2023/07/21 10:08:41;;;;;;;1.33;1.23;;;23.40;60.60;;;;;;4994834;28;20190;-73
2023/07/21 10:11:07;;;;;;;1.70;1.33;;;23.40;60.50;;;;;;4966061;28;20190;-73
2023/07/21 10:13:42;;;;;;;1.30;1.20;;;23.40;60.40;;;;;;4983798;28;20245;-73
2023/07/21 10:16:11;;;;;;;1.50;1.40;;;23.40;60.50;;;;;;4976553;28;20195;-72
2023/07/21 10:18:59;;;;;;;1.23;1.10;;;23.40;60.40;;;;;;4976513;28;20185;-73
2023/07/21 10:21:31;;;;;;;1.50;1.40;;;23.40;60.60;;;;;;4970385;28;20277;-73
2023/07/21 10:24:01;;;;;;;1.67;1.58;;;23.40;60.40;;;;;;4966373;28;20209;-74
2023/07/21 10:26:30;;;;;;;1.83;1.70;;;23.40;60.40;;;;;;4991379;28;20273;-74
2023/07/21 10:29:15;;;;;;;1.40;1.30;;;23.40;60.60;;;;;;4986342;28;20897;-72
2023/07/21 10:31:55;;;;;;;1.60;1.30;;;23.40;60.70;;;;;;4973514;28;20235;-74
2023/07/21 10:34:34;;;;;;;1.23;1.13;;;23.40;60.60;;;;;;4980061;28;20205;-74
2023/07/21 10:37:04;;;;;;;1.45;1.30;;;23.40;60.40;;;;;;4969098;28;20184;-71
2023/07/21 10:39:33;;;;;;;1.42;1.33;;;23.40;60.40;;;;;;4983353;28;20628;-71
2023/07/21 10:42:05;;;;;;;1.90;1.50;;;23.40;60.40;;;;;;4964980;28;20192;-70
2023/07/21 10:44:52;;;;;;;1.45;1.35;;;23.40;60.40;;;;;;4992579;28;20208;-70
2023/07/21 10:47:21;;;;;;;2.17;1.27;;;23.40;60.50;;;;;;4964497;28;20271;-70
2023/07/21 10:49:48;;;;;;;1.70;1.50;;;23.40;60.60;;;;;;4969571;28;20186;-70
2023/07/21 10:52:15;;;;;;;1.60;1.50;;;23.40;60.40;;;;;;4983696;28;20213;-71
2023/07/21 10:54:41;;;;;;;1.63;1.52;;;23.40;61.00;;;;;;4976841;28;20205;-71
2023/07/21 10:57:11;;;;;;;1.40;1.30;;;23.40;60.70;;;;;;4988704;28;20193;-71
2023/07/21 10:59:37;;;;;;;1.40;1.30;;;23.40;60.50;;;;;;4967063;28;20196;-70
2023/07/21 11:02:08;;;;;;;1.13;1.13;;;23.40;60.60;;;;;;4980493;28;20193;-71
2023/07/21 11:04:35;;;;;;;1.40;1.30;;;23.40;60.90;;;;;;4972699;28;20201;-70
2023/07/21 11:07:01;;;;;;;1.30;1.20;;;23.40;60.50;;;;;;5004924;28;20220;-70
2023/07/21 11:09:33;;;;;;;1.35;1.25;;;23.40;61.40;;;;;;4969931;28;20186;-71
2023/07/21 11:12:00;;;;;;;1.42;1.33;;;23.40;60.60;;;;;;4971855;28;20279;-71
2023/07/21 11:14:27;;;;;;;1.50;1.40;;;23.40;60.40;;;;;;4989839;28;20430;-71
2023/07/21 11:17:00;;;;;;;1.65;1.30;;;23.40;60.40;;;;;;4985739;28;20280;-70
2023/07/21 11:19:32;;;;;;;1.85;1.60;;;23.40;60.40;;;;;;4974461;28;20185;-71
2023/07/21 11:21:58;;;;;;;1.27;1.17;;;23.40;60.60;;;;;;4975605;28;20197;-71
2023/07/21 11:24:28;;;;;;;1.80;1.70;;;23.40;60.40;;;;;;4981814;28;20201;-71
2023/07/21 11:27:08;;;;;;;2.08;1.60;;;23.40;60.40;;;;;;4964880;28;20333;-70
2023/07/21 11:29:45;;;;;;;1.52;1.42;;;23.40;60.40;;;;;;4969649;28;20207;-71
2023/07/21 11:32:27;;;;;;;1.40;1.30;;;23.40;60.60;;;;;;4986902;28;20216;-70
2023/07/21 11:34:59;;;;;;;1.52;1.42;;;23.40;60.60;;;;;;4978864;28;20209;-69
2023/07/21 11:37:34;;;;;;;1.35;1.20;;;23.40;60.40;;;;;;4984860;28;20193;-70
2023/07/21 11:40:15;;;;;;;1.50;1.40;;;23.40;60.40;;;;;;4970177;28;20197;-70
2023/07/21 11:42:48;;;;;;;1.58;1.40;;;23.40;60.40;;;;;;4987059;28;20205;-71
2023/07/21 11:45:48;;;;;;;2.33;1.58;;;23.40;60.40;;;;;;4971527;28;20194;-71
2023/07/21 11:48:17;;;;;;;1.65;1.55;;;23.40;60.40;;;;;;4921768;28;20219;-71
2023/07/21 11:50:52;;;;;;;1.65;1.52;;;23.40;60.40;;;;;;4980017;28;20189;-71
2023/07/21 11:53:23;;;;;;;1.58;1.38;;;23.40;60.40;;;;;;5001743;28;20212;-69
2023/07/21 11:55:50;;;;;;;1.70;1.52;;;23.40;60.40;;;;;;4972243;28;20664;-70
2023/07/21 11:58:16;;;;;;;1.70;1.60;;;23.40;61.20;;;;;;4964032;28;20879;-71
2023/07/21 12:00:42;;;;;;;1.50;1.40;;;23.40;60.40;;;;;;4980578;28;20216;-71
2023/07/21 12:03:10;;;;;;;1.42;1.33;;;23.40;60.40;;;;;;4967869;28;20237;-70
2023/07/21 12:05:37;;;;;;;1.73;1.60;;;23.40;60.40;;;;;;4987805;28;20201;-70
2023/07/21 12:08:06;;;;;;;1.67;1.58;;;23.40;60.40;;;;;;4989336;28;20232;-70
2023/07/21 12:10:32;;;;;;;1.60;1.50;;;23.40;60.30;;;;;;4987104;28;20199;-70
2023/07/21 12:12:58;;;;;;;1.73;1.20;;;23.40;60.40;;;;;;4984228;28;20222;-71
2023/07/21 12:15:24;;;;;;;1.73;1.63;;;23.40;61.10;;;;;;4981136;28;20542;-71
2023/07/21 12:17:50;;;;;;;1.70;1.60;;;23.40;60.40;;;;;;4975237;28;20194;-70
2023/07/21 12:20:17;;;;;;;2.55;1.85;;;23.40;60.40;;;;;;4990067;28;20189;-72
2023/07/21 12:22:43;;;;;;;1.75;1.50;;;23.40;61.20;;;;;;4972758;28;20274;-73
2023/07/21 12:25:09;;;;;;;2.22;1.80;;;23.40;60.40;;;;;;4970843;28;20216;-72
2023/07/21 12:27:37;;;;;;;1.88;1.40;;;23.40;60.40;;;;;;4985107;28;20195;-71
2023/07/21 12:30:08;;;;;;;1.65;1.55;;;23.40;60.40;;;;;;4988945;28;20197;-72
2023/07/21 12:32:34;;;;;;;1.70;1.60;;;23.40;60.40;;;;;;4985376;28;20213;-72
2023/07/21 12:35:01;;;;;;;1.77;1.50;;;23.40;60.40;;;;;;4977181;28;20283;-73
2023/07/21 12:37:27;;;;;;;2.40;1.75;;;23.40;60.50;;;;;;4989634;28;20680;-72
2023/07/21 12:39:54;;;;;;;2.10;1.90;;;23.50;60.50;;;;;;4988232;28;20268;-72
2023/07/21 12:42:20;;;;;;;1.85;1.70;;;23.40;60.50;;;;;;4981120;28;20189;-73
2023/07/21 12:44:46;;;;;;;1.80;1.70;;;23.40;60.40;;;;;;4970247;28;20211;-72
2023/07/21 12:47:12;;;;;;;1.70;1.45;;;23.40;60.40;;;;;;4963051;28;20399;-72
2023/07/21 12:49:38;;;;;;;1.77;1.65;;;23.50;60.60;;;;;;4985076;28;20196;-71
2023/07/21 12:52:04;;;;;;;1.50;1.40;;;23.50;60.70;;;;;;4974065;28;20209;-72
2023/07/21 12:54:30;;;;;;;1.50;1.40;;;23.50;60.60;;;;;;4973739;28;20205;-72
2023/07/21 12:56:57;;;;;;;2.42;1.60;;;23.40;60.60;;;;;;4972721;28;20189;-71
2023/07/21 12:59:23;;;;;;;1.50;1.40;;;23.40;60.40;;;;;;4962950;28;20221;-72